Del Valle, Texas
Current Conditions -  °F | °C
As of 2:53 AM on Sunday 21 Dec 2014 (Local Time) from KAUS Reporting Station
Haze Haze  
Wind Chill: 50°   Ceiling: 2100
Heat Index: 50°   Visibility: 6mi
Dew Point: 48°   Wind: 5mph
Humidity: 93%   Direction: 140°SE
Pressure: 30.13"   Gusts: NA
Location:  30.21°N, 97.66°W
Report Text: KAUS 210853Z 14004KT 6SM BR OVC021 10/09 A3013 RMK AO2 SLP205 T01000089 58013
Loading
Personal Weather Stations






























Interactive Weather Map New forecast layout! Learn more

10-Day Weather Forecast

Advertisements
Track Severe Weather on mobile